This is the latest recevied weather packets stored in our database for station/object N9VPV. If no packets are shown the sender has not sent any weather packets the latest 10 day(s).
| Time | Temp. | Humidity | Pressure | Rain* | Wind** | Luminosity | Snow |
|---|---|---|---|---|---|---|---|
| 1777585354 | 13.33° C | 67% | 1013.4 hPa | 0 mm | - | 0 W/m² | - |
| 1777584435 | 13.33° C | 67% | 1013.5 hPa | 0 mm | - | 0 W/m² | - |
| 1777583535 | 12.78° C | 69% | 1014 hPa | 0 mm | - | 40 W/m² | - |
| 1777582635 | 12.78° C | 69% | 1014 hPa | 0 mm | - | 0 W/m² | - |
| 1777581732 | 12.78° C | 69% | 1014.1 hPa | 0 mm | - | 0 W/m² | - |
| 1777580829 | 12.22° C | 72% | 1014.2 hPa | 0 mm | - | 7 W/m² | - |
| 1777579926 | 11.67° C | 74% | 1014.6 hPa | 0 mm | - | 0 W/m² | - |
| 1777579021 | 11.67° C | 73% | 1014.9 hPa | 0 mm | - | 0 W/m² | - |
| 1777578122 | 12.22° C | 71% | 1015.1 hPa | 0 mm | - | 0 W/m² | - |
| 1777577221 | 12.22° C | 67% | 1015.1 hPa | 0 mm | - | 0 W/m² | - |
| 1777576321 | 12.22° C | 66% | 1015.2 hPa | 0 mm | - | 0 W/m² | - |
| 1777575401 | 12.22° C | 67% | 1015.1 hPa | 0 mm | - | 42 W/m² | - |
| 1777574500 | 12.22° C | 63% | 1015.4 hPa | 0 mm | - | 0 W/m² | - |
| 1777573600 | 12.22° C | 64% | 1015.7 hPa | 0 mm | - | 0 W/m² | - |
| 1777572698 | 12.22° C | 62% | 1016 hPa | 0 mm | - | 0 W/m² | - |
| 1777571796 | 12.22° C | 62% | 1016.2 hPa | 0 mm | - | 7 W/m² | - |
| 1777570896 | 12.78° C | 59% | 1016.4 hPa | 0 mm | - | 0 W/m² | - |
| 1777569997 | 13.89° C | 53% | 1016.2 hPa | 0 mm | - | 0 W/m² | - |
| 1777569096 | 14.44° C | 52% | 1016.3 hPa | 0 mm | - | 46 W/m² | - |
| 1777568193 | 15° C | 49% | 1016.3 hPa | 0 mm | - | 179 W/m² | - |
| 1777567292 | 14.44° C | 52% | 1016.5 hPa | 0 mm | - | 338 W/m² | - |
| 1777566392 | 14.44° C | 51% | 1016.5 hPa | 0 mm | - | 97 W/m² | - |
| 1777565494 | 14.44° C | 46% | 1016.4 hPa | 0 mm | - | 28 W/m² | - |
| 1777564591 | 14.44° C | 46% | 1016.5 hPa | 0 mm | - | 93 W/m² | - |
| 1777563691 | 14.44° C | 45% | 1016.4 hPa | 0 mm | - | 95 W/m² | - |
* Rain latest hour (hover to see other rain measurements)
** Current wind speed in m/s (hover to see current wind gust speed)